Time;durP1;ratioP1;P1;durP2;ratioP2;P2;SDS_P1;SDS_P2;PMS_P1;PMS_P2;Temp;Humidity;BMP_temperature;BMP_pressure;BME280_temperature;BME280_humidity;BME280_pressure;Samples;Min_cycle;Max_cycle;Signal;HPM_P1;HPM_P2
2023/01/07 00:01:50;;;;;;;;;;;;;;;6.43;54.98;100533.31;5055483;28;19908;-94
2023/01/07 00:04:15;;;;;;;;;;;;;;;6.39;55.50;100545.47;5053688;28;20023;-93
2023/01/07 00:06:42;;;;;;;;;;;;;;;6.36;55.40;100536.69;5053236;28;20343;-93
2023/01/07 00:09:11;;;;;;;;;;;;;;;6.46;55.76;100543.84;5053216;28;19916;-93
2023/01/07 00:11:38;;;;;;;;;;;;;;;6.45;55.69;100544.69;5053428;28;19913;-92
2023/01/07 00:14:04;;;;;;;;;;;;;;;6.39;55.95;100555.06;5053564;28;20011;-93
2023/01/07 00:16:30;;;;;;;;;;;;;;;6.59;55.88;100565.84;5054223;28;20359;-93
2023/01/07 00:18:57;;;;;;;;;;;;;;;5.80;54.41;100567.13;5053956;28;19913;-94
2023/01/07 00:21:23;;;;;;;;;;;;;;;5.55;55.81;100564.06;5053518;28;19916;-93
2023/01/07 00:23:52;;;;;;;;;;;;;;;5.52;56.59;100570.97;5053574;28;20359;-93
2023/01/07 00:26:20;;;;;;;;;;;;;;;5.47;57.04;100572.59;5053208;28;19917;-93
2023/01/07 00:28:46;;;;;;;;;;;;;;;5.53;57.21;100567.50;5054529;28;19912;-93
2023/01/07 00:31:11;;;;;;;;;;;;;;;5.66;57.20;100566.88;5053021;28;19947;-93
2023/01/07 00:33:48;;;;;;;;;;;;;;;5.73;56.77;100565.25;5054368;28;19913;-93
2023/01/07 00:36:17;;;;;;;;;;;;;;;5.94;56.50;100566.50;5053197;28;20319;-93
2023/01/07 00:38:43;;;;;;;;;;;;;;;6.07;56.30;100564.16;5054302;28;19913;-93
2023/01/07 00:41:16;;;;;;;;;;;;;;;5.90;56.56;100570.78;5054091;28;20367;-93
2023/01/07 00:43:43;;;;;;;;;;;;;;;5.82;57.00;100578.50;5052845;28;19913;-93
2023/01/07 00:46:10;;;;;;;;;;;;;;;5.57;58.47;100572.81;5053167;28;19913;-93
2023/01/07 00:48:36;;;;;;;;;;;;;;;5.57;58.76;100579.78;5053595;28;19913;-93
2023/01/07 00:51:01;;;;;;;;;;;;;;;5.73;58.27;100578.34;5035674;28;20019;-92
2023/01/07 00:53:29;;;;;;;;;;;;;;;5.62;58.28;100583.38;5052711;28;19960;-92
2023/01/07 00:55:55;;;;;;;;;;;;;;;5.85;57.58;100581.19;5052603;28;19971;-93
2023/01/07 00:58:21;;;;;;;;;;;;;;;5.67;57.15;100579.13;5052615;28;19917;-93
2023/01/07 01:00:47;;;;;;;;;;;;;;;5.50;58.11;100586.66;5052391;28;20370;-92
2023/01/07 01:03:12;;;;;;;;;;;;;;;5.37;57.93;100582.88;5054233;28;19909;-92
2023/01/07 01:05:38;;;;;;;;;;;;;;;5.54;57.78;100583.22;5052977;28;19917;-93
2023/01/07 01:08:03;;;;;;;;;;;;;;;5.46;57.91;100584.81;5052726;28;19964;-93
2023/01/07 01:10:28;;;;;;;;;;;;;;;5.48;58.40;100583.09;5051895;28;19920;-95
2023/01/07 01:12:54;;;;;;;;;;;;;;;5.30;59.42;100578.41;5054381;28;19920;-96
2023/01/07 01:15:19;;;;;;;;;;;;;;;5.31;60.41;100571.41;5041532;28;19916;-95
2023/01/07 01:17:45;;;;;;;;;;;;;;;5.49;59.59;100568.31;5058969;28;19913;-96
2023/01/07 01:20:12;;;;;;;;;;;;;;;5.54;59.79;100572.75;5078250;28;19905;-95
2023/01/07 01:22:38;;;;;;;;;;;;;;;5.77;59.50;100568.81;5069965;28;19917;-96
2023/01/07 01:25:06;;;;;;;;;;;;;;;5.81;59.10;100575.88;5055085;28;19917;-96
2023/01/07 01:27:35;;;;;;;;;;;;;;;5.64;58.82;100576.44;5055102;28;19913;-96
2023/01/07 01:30:01;;;;;;;;;;;;;;;5.63;58.35;100573.81;5036015;28;19985;-96
2023/01/07 01:32:26;;;;;;;;;;;;;;;5.53;58.19;100572.72;5052660;28;19928;-96
2023/01/07 01:34:52;;;;;;;;;;;;;;;5.31;58.66;100574.03;5052464;28;20017;-95
2023/01/07 01:37:17;;;;;;;;;;;;;;;5.28;59.00;100567.00;5052708;28;20391;-95
2023/01/07 01:39:43;;;;;;;;;;;;;;;5.20;59.49;100563.34;5036326;28;20306;-95
2023/01/07 01:42:16;;;;;;;;;;;;;;;5.20;59.26;100559.03;5052431;28;20062;-93
2023/01/07 01:44:45;;;;;;;;;;;;;;;5.24;59.34;100557.34;5052350;28;19920;-94
2023/01/07 01:47:22;;;;;;;;;;;;;;;5.06;59.63;100562.19;5051748;28;20299;-94
2023/01/07 01:50:08;;;;;;;;;;;;;;;5.11;58.95;100566.69;5053506;28;19913;-93
2023/01/07 01:52:42;;;;;;;;;;;;;;;4.98;59.61;100567.25;5051538;28;20363;-93
2023/01/07 01:55:09;;;;;;;;;;;;;;;5.12;58.99;100559.69;5051584;28;19974;-94
2023/01/07 01:57:35;;;;;;;;;;;;;;;5.01;59.22;100568.19;5051733;28;19916;-94
2023/01/07 02:00:01;;;;;;;;;;;;;;;4.98;59.15;100568.13;5052783;28;19913;-93
2023/01/07 02:02:30;;;;;;;;;;;;;;;4.97;60.10;100565.47;5052212;28;20264;-93
2023/01/07 02:04:56;;;;;;;;;;;;;;;4.94;59.95;100570.63;5051416;28;20007;-93
2023/01/07 02:07:21;;;;;;;;;;;;;;;4.88;60.34;100560.94;5052386;28;19913;-93
2023/01/07 02:09:53;;;;;;;;;;;;;;;4.93;60.12;100566.28;5052754;28;19939;-93
2023/01/07 02:12:28;;;;;;;;;;;;;;;4.80;60.27;100573.84;5052703;28;20031;-93
2023/01/07 02:15:13;;;;;;;;;;;;;;;4.82;60.64;100566.03;5051718;28;19956;-93
2023/01/07 02:17:53;;;;;;;;;;;;;;;4.66;60.76;100560.47;5053979;28;19913;-93
2023/01/07 02:20:25;;;;;;;;;;;;;;;4.48;62.48;100573.97;5056611;28;19913;-92
2023/01/07 02:22:51;;;;;;;;;;;;;;;4.58;62.67;100568.97;5055306;28;19908;-92
2023/01/07 02:25:40;;;;;;;;;;;;;;;4.77;62.56;100576.41;5056475;28;20329;-92
2023/01/07 02:28:24;;;;;;;;;;;;;;;4.76;62.26;100578.97;5045538;28;19909;-94
2023/01/07 02:31:02;;;;;;;;;;;;;;;4.76;61.69;100572.00;5055576;28;20011;-94
2023/01/07 02:33:33;;;;;;;;;;;;;;;4.74;61.51;100578.94;5056390;28;19913;-94
2023/01/07 02:36:01;;;;;;;;;;;;;;;4.73;61.95;100586.75;5056368;28;19960;-95
2023/01/07 02:38:27;;;;;;;;;;;;;;;4.68;62.30;100591.88;5055893;28;19913;-94
2023/01/07 02:40:52;;;;;;;;;;;;;;;4.73;61.94;100591.97;5055711;28;20004;-94
2023/01/07 02:43:36;;;;;;;;;;;;;;;4.82;61.88;100593.06;5055331;28;19952;-94
2023/01/07 02:46:09;;;;;;;;;;;;;;;4.83;61.88;100596.53;5055596;28;19912;-95
2023/01/07 02:48:35;;;;;;;;;;;;;;;4.72;61.54;100604.13;5055835;28;19912;-95
2023/01/07 02:51:00;;;;;;;;;;;;;;;4.60;62.34;100596.00;5055535;28;20003;-95
2023/01/07 02:53:25;;;;;;;;;;;;;;;4.59;61.82;100587.31;5055226;28;19959;-96
2023/01/07 02:55:57;;;;;;;;;;;;;;;4.44;61.21;100584.31;5057006;28;20416;-95
2023/01/07 02:58:38;;;;;;;;;;;;;;;4.29;61.89;100590.03;5055861;28;19912;-95
2023/01/07 03:01:15;;;;;;;;;;;;;;;4.16;62.70;100598.44;5055370;28;19948;-95
2023/01/07 03:03:42;;;;;;;;;;;;;;;4.17;63.11;100595.88;5055515;28;19913;-95
2023/01/07 03:06:10;;;;;;;;;;;;;;;4.23;63.41;100605.56;5055429;28;19913;-94
2023/01/07 03:08:54;;;;;;;;;;;;;;;4.29;63.49;100600.50;5055432;28;19935;-93
2023/01/07 03:11:22;;;;;;;;;;;;;;;4.15;64.15;100604.50;5054879;28;19917;-94
2023/01/07 03:13:50;;;;;;;;;;;;;;;4.35;63.65;100605.88;5055975;28;19912;-92
2023/01/07 03:16:22;;;;;;;;;;;;;;;4.40;63.19;100601.66;5054420;28;19913;-93
2023/01/07 03:18:51;;;;;;;;;;;;;;;4.44;62.78;100613.06;5054542;28;19913;-95
2023/01/07 03:21:20;;;;;;;;;;;;;;;4.44;62.04;100605.22;5054984;28;19935;-93
2023/01/07 03:23:49;;;;;;;;;;;;;;;4.29;62.05;100608.34;5055606;28;19995;-93
2023/01/07 03:26:18;;;;;;;;;;;;;;;4.10;62.11;100607.88;5054440;28;19913;-93
2023/01/07 03:28:44;;;;;;;;;;;;;;;4.14;61.15;100603.63;5055497;28;19955;-93
2023/01/07 03:31:11;;;;;;;;;;;;;;;3.76;61.53;100598.25;5054053;28;20350;-93
2023/01/07 03:33:44;;;;;;;;;;;;;;;3.60;61.73;100596.97;5055203;28;19924;-93
2023/01/07 03:36:12;;;;;;;;;;;;;;;3.40;62.75;100607.72;5056111;28;19987;-93
2023/01/07 03:38:39;;;;;;;;;;;;;;;3.51;62.23;100604.53;5055136;28;19913;-92
2023/01/07 03:41:04;;;;;;;;;;;;;;;3.23;62.83;100611.56;5053770;28;19963;-93
2023/01/07 03:43:29;;;;;;;;;;;;;;;3.23;62.67;100603.75;5053692;28;19916;-92
2023/01/07 03:45:56;;;;;;;;;;;;;;;3.22;62.85;100610.66;5054045;28;19913;-93
2023/01/07 03:48:22;;;;;;;;;;;;;;;3.16;63.06;100612.22;5054945;28;19956;-91
2023/01/07 03:50:47;;;;;;;;;;;;;;;3.27;63.03;100605.59;5055011;28;19980;-92
2023/01/07 03:53:13;;;;;;;;;;;;;;;3.18;63.08;100607.94;5054106;28;19920;-91
2023/01/07 03:55:39;;;;;;;;;;;;;;;3.16;63.26;100597.44;5054783;28;19959;-92
2023/01/07 03:58:05;;;;;;;;;;;;;;;2.56;64.80;100611.25;5054479;28;19913;-92
2023/01/07 04:00:30;;;;;;;;;;;;;;;2.81;64.70;100609.41;5055261;28;19920;-91
2023/01/07 04:02:56;;;;;;;;;;;;;;;2.87;65.30;100612.22;5054705;28;20381;-91
2023/01/07 04:05:21;;;;;;;;;;;;;;;3.12;64.64;100608.66;5054320;28;19944;-92
2023/01/07 04:07:47;;;;;;;;;;;;;;;3.21;64.12;100606.31;5054634;28;19920;-90
2023/01/07 04:10:13;;;;;;;;;;;;;;;3.36;63.34;100607.59;5053291;28;19909;-91
2023/01/07 04:12:38;;;;;;;;;;;;;;;3.24;63.95;100602.88;5053351;28;19920;-88
2023/01/07 04:15:03;;;;;;;;;;;;;;;3.28;64.01;100602.16;5054417;28;20337;-91
2023/01/07 04:17:29;;;;;;;;;;;;;;;3.18;63.81;100614.03;5054194;28;19948;-90
2023/01/07 04:19:54;;;;;;;;;;;;;;;3.12;64.24;100615.56;5054084;28;19912;-91
2023/01/07 04:22:19;;;;;;;;;;;;;;;3.10;64.56;100620.72;5053151;28;20286;-91
2023/01/07 04:24:44;;;;;;;;;;;;;;;3.22;64.27;100620.22;5054399;28;19913;-93
2023/01/07 04:27:10;;;;;;;;;;;;;;;3.23;64.06;100627.22;5053648;28;19913;-94
2023/01/07 04:29:35;;;;;;;;;;;;;;;3.19;64.55;100627.97;5054778;28;19962;-91
2023/01/07 04:32:00;;;;;;;;;;;;;;;3.05;64.90;100628.41;5055515;28;20291;-93
2023/01/07 04:34:26;;;;;;;;;;;;;;;3.10;65.22;100632.91;5055625;28;20007;-92
2023/01/07 04:36:52;;;;;;;;;;;;;;;3.28;65.71;100629.97;5056779;28;19912;-93
2023/01/07 04:39:18;;;;;;;;;;;;;;;3.48;64.68;100644.47;5057665;28;19913;-94
2023/01/07 04:41:43;;;;;;;;;;;;;;;3.47;64.18;100639.19;5063393;28;19947;-95
2023/01/07 04:44:08;;;;;;;;;;;;;;;3.51;64.25;100635.84;5075926;28;19920;-95
2023/01/07 04:46:34;;;;;;;;;;;;;;;3.40;64.16;100639.03;5069339;28;19970;-95
2023/01/07 04:48:59;;;;;;;;;;;;;;;3.30;64.11;100634.38;5055130;28;19970;-94
2023/01/07 04:51:26;;;;;;;;;;;;;;;3.32;64.00;100640.53;5052788;28;19912;-94
2023/01/07 04:53:52;;;;;;;;;;;;;;;3.39;64.48;100642.47;5053039;28;19913;-94
2023/01/07 04:56:18;;;;;;;;;;;;;;;3.29;64.41;100644.75;5052889;28;19917;-94
2023/01/07 04:58:45;;;;;;;;;;;;;;;3.34;63.89;100644.06;5053099;28;19923;-95
2023/01/07 05:01:10;;;;;;;;;;;;;;;3.32;63.88;100650.97;5052851;28;19913;-94
2023/01/07 05:03:36;;;;;;;;;;;;;;;3.27;63.33;100652.53;5054491;28;19916;-95
2023/01/07 05:06:02;;;;;;;;;;;;;;;3.16;63.78;100662.63;5053050;28;19956;-93
2023/01/07 05:08:27;;;;;;;;;;;;;;;3.25;63.34;100659.44;5052333;28;19969;-94
2023/01/07 05:10:53;;;;;;;;;;;;;;;3.17;63.13;100653.97;5052712;28;20396;-93
2023/01/07 05:13:19;;;;;;;;;;;;;;;3.16;62.45;100656.53;5053148;28;19913;-93
2023/01/07 05:15:45;;;;;;;;;;;;;;;2.70;62.77;100655.97;5052330;28;20374;-93
2023/01/07 05:18:11;;;;;;;;;;;;;;;2.28;63.71;100665.03;5053458;28;20290;-93
2023/01/07 05:20:36;;;;;;;;;;;;;;;2.28;64.86;100667.63;5052115;28;19912;-93
2023/01/07 05:23:02;;;;;;;;;;;;;;;2.32;64.68;100674.72;5051723;28;19913;-92
2023/01/07 05:25:27;;;;;;;;;;;;;;;2.40;65.45;100664.56;5052072;28;20384;-92
2023/01/07 05:27:53;;;;;;;;;;;;;;;2.42;66.05;100668.09;5052270;28;20291;-94
2023/01/07 05:30:18;;;;;;;;;;;;;;;2.11;66.53;100669.66;5052460;28;19917;-95
2023/01/07 05:32:43;;;;;;;;;;;;;;;2.33;66.17;100658.28;5052166;28;19916;-94
2023/01/07 05:35:09;;;;;;;;;;;;;;;2.37;66.18;100660.97;5052247;28;19916;-94
2023/01/07 05:37:34;;;;;;;;;;;;;;;2.51;66.34;100671.00;5035852;28;19916;-94
2023/01/07 05:39:59;;;;;;;;;;;;;;;2.53;66.61;100664.97;5052280;28;19919;-93
2023/01/07 05:42:25;;;;;;;;;;;;;;;2.51;66.85;100663.19;5052156;28;19917;-94
2023/01/07 05:44:50;;;;;;;;;;;;;;;2.45;67.17;100662.13;5035783;28;20432;-95
2023/01/07 05:47:15;;;;;;;;;;;;;;;2.37;67.18;100667.06;5053156;28;19912;-93
2023/01/07 05:49:41;;;;;;;;;;;;;;;2.25;66.64;100670.13;5052210;28;19920;-93
2023/01/07 05:52:06;;;;;;;;;;;;;;;2.19;65.68;100666.44;5051210;28;20299;-94
2023/01/07 05:54:31;;;;;;;;;;;;;;;2.21;65.01;100669.97;5051857;28;19956;-94
2023/01/07 05:56:57;;;;;;;;;;;;;;;2.24;65.18;100675.28;5051718;28;19919;-94
2023/01/07 05:59:23;;;;;;;;;;;;;;;2.22;65.50;100676.97;5051486;28;19912;-94
2023/01/07 06:01:49;;;;;;;;;;;;;;;2.18;65.28;100682.88;5052024;28;20413;-95
2023/01/07 06:04:14;;;;;;;;;;;;;;;2.11;65.75;100679.19;5051430;28;19956;-95
2023/01/07 06:06:41;;;;;;;;;;;;;;;2.14;65.96;100684.50;5053915;28;19920;-93
2023/01/07 06:09:06;;;;;;;;;;;;;;;2.18;66.06;100698.50;5051069;28;19939;-91
2023/01/07 06:11:31;;;;;;;;;;;;;;;2.21;66.41;100694.31;5052552;28;20311;-90
2023/01/07 06:13:57;;;;;;;;;;;;;;;2.38;66.26;100694.88;5052668;28;19963;-92
2023/01/07 06:16:22;;;;;;;;;;;;;;;2.24;65.94;100686.59;5051406;28;20354;-92
2023/01/07 06:18:47;;;;;;;;;;;;;;;2.40;66.45;100689.72;5051233;28;19963;-91
2023/01/07 06:21:15;;;;;;;;;;;;;;;2.50;66.16;100689.19;5053288;28;19919;-92
2023/01/07 06:23:40;;;;;;;;;;;;;;;2.33;66.48;100686.00;5053440;28;19958;-94
2023/01/07 06:26:06;;;;;;;;;;;;;;;2.50;66.22;100678.78;5053279;28;19913;-93
2023/01/07 06:28:31;;;;;;;;;;;;;;;2.64;66.27;100687.94;5051598;28;19913;-94
2023/01/07 06:30:56;;;;;;;;;;;;;;;2.68;66.07;100684.59;5052858;28;19919;-94
2023/01/07 06:33:22;;;;;;;;;;;;;;;2.67;66.51;100685.44;5051857;28;20016;-93
2023/01/07 06:35:48;;;;;;;;;;;;;;;2.76;66.33;100690.06;5051686;28;19919;-95
2023/01/07 06:38:14;;;;;;;;;;;;;;;2.99;66.04;100687.31;5035664;28;20402;-96
2023/01/07 06:40:40;;;;;;;;;;;;;;;3.14;65.52;100700.81;5052383;28;19912;-95
2023/01/07 06:43:07;;;;;;;;;;;;;;;3.26;64.76;100691.59;5052721;28;20314;-95
2023/01/07 06:45:32;;;;;;;;;;;;;;;3.37;64.50;100692.84;5052507;28;19918;-96
2023/01/07 06:47:58;;;;;;;;;;;;;;;3.45;64.15;100704.38;5052392;28;20378;-95
2023/01/07 06:50:23;;;;;;;;;;;;;;;3.40;64.44;100706.84;5052395;28;19966;-95
2023/01/07 06:52:48;;;;;;;;;;;;;;;3.63;64.16;100708.34;5052951;28;19939;-95
2023/01/07 06:55:15;;;;;;;;;;;;;;;3.81;64.37;100710.63;5055419;28;19924;-96
2023/01/07 06:57:40;;;;;;;;;;;;;;;3.97;64.31;100701.50;5052032;28;20371;-90
2023/01/07 07:00:06;;;;;;;;;;;;;;;4.09;63.93;100696.59;5067320;28;19917;-93
2023/01/07 07:02:32;;;;;;;;;;;;;;;4.28;63.91;100708.47;5035227;28;19917;-90
2023/01/07 07:04:57;;;;;;;;;;;;;;;4.43;62.97;100705.34;5056699;28;19963;-95
2023/01/07 07:07:23;;;;;;;;;;;;;;;4.44;63.81;100704.50;5055590;28;19948;-92
2023/01/07 07:09:49;;;;;;;;;;;;;;;4.70;63.94;100706.91;5057406;28;19920;-94
2023/01/07 07:12:16;;;;;;;;;;;;;;;4.85;63.68;100707.28;5055674;28;19913;-94
2023/01/07 07:14:41;;;;;;;;;;;;;;;5.23;62.79;100698.56;5055217;28;20003;-94
2023/01/07 07:17:06;;;;;;;;;;;;;;;5.45;61.68;100694.69;5054640;28;20003;-94
2023/01/07 07:19:32;;;;;;;;;;;;;;;5.42;61.54;100692.88;5038370;28;20015;-94
2023/01/07 07:21:58;;;;;;;;;;;;;;;5.60;61.92;100691.53;5054442;28;19952;-94
2023/01/07 07:24:23;;;;;;;;;;;;;;;5.95;60.27;100699.22;5038218;28;19956;-94
2023/01/07 07:26:49;;;;;;;;;;;;;;;6.25;59.97;100691.97;5055631;28;20291;-91
2023/01/07 07:29:15;;;;;;;;;;;;;;;6.52;58.89;100690.72;5055944;28;19948;-93
2023/01/07 07:31:40;;;;;;;;;;;;;;;6.46;58.29;100695.84;5055413;28;19920;-95
2023/01/07 07:34:06;;;;;;;;;;;;;;;6.42;58.63;100700.13;5056294;28;19920;-95
2023/01/07 07:36:31;;;;;;;;;;;;;;;6.33;58.58;100702.59;5055275;28;19919;-96
2023/01/07 07:38:57;;;;;;;;;;;;;;;6.54;58.01;100709.97;5055252;28;19935;-95
2023/01/07 07:41:23;;;;;;;;;;;;;;;6.25;58.35;100712.94;5054592;28;19917;-92
2023/01/07 07:43:48;;;;;;;;;;;;;;;6.50;57.68;100702.03;5055986;28;19920;-94
2023/01/07 07:46:13;;;;;;;;;;;;;;;6.58;57.91;100708.28;5054290;28;19920;-92
2023/01/07 07:48:39;;;;;;;;;;;;;;;6.61;57.75;100705.72;5053767;28;19923;-93
2023/01/07 07:51:05;;;;;;;;;;;;;;;6.86;57.35;100711.38;5055728;28;20355;-92
2023/01/07 07:53:30;;;;;;;;;;;;;;;6.76;57.96;100716.47;5055170;28;20367;-92
2023/01/07 07:55:55;;;;;;;;;;;;;;;6.86;57.97;100707.03;5055127;28;19916;-94
2023/01/07 07:58:21;;;;;;;;;;;;;;;6.81;57.82;100706.03;5055563;28;19917;-94
2023/01/07 08:00:46;;;;;;;;;;;;;;;6.60;57.19;100706.59;5056697;28;19963;-94
2023/01/07 08:03:11;;;;;;;;;;;;;;;6.41;58.65;100705.34;5067364;28;19905;-91
2023/01/07 08:05:41;;;;;;;;;;;;;;;6.30;58.61;100699.03;5080153;28;19987;-91
2023/01/07 08:08:10;;;;;;;;;;;;;;;6.36;59.43;100694.78;5061811;28;19975;-96
2023/01/07 08:10:38;;;;;;;;;;;;;;;6.82;59.44;100695.59;5054972;28;19913;-93
2023/01/07 08:13:03;;;;;;;;;;;;;;;7.19;58.91;100708.41;5070368;28;19935;-91
2023/01/07 08:15:29;;;;;;;;;;;;;;;7.34;58.30;100706.00;5053792;28;20362;-93
2023/01/07 08:18:03;;;;;;;;;;;;;;;7.66;57.18;100708.19;5053341;28;19912;-93
2023/01/07 08:20:28;;;;;;;;;;;;;;;7.75;56.54;100703.91;5053597;28;19970;-93
2023/01/07 08:22:54;;;;;;;;;;;;;;;7.48;56.96;100700.06;5053512;28;19909;-93
2023/01/07 08:25:19;;;;;;;;;;;;;;;7.54;57.82;100694.91;5054507;28;19920;-93
2023/01/07 08:27:44;;;;;;;;;;;;;;;7.79;58.53;100690.84;5054712;28;20320;-93
2023/01/07 08:30:10;;;;;;;;;;;;;;;8.06;57.06;100702.53;5053970;28;19943;-93
2023/01/07 08:32:35;;;;;;;;;;;;;;;8.06;56.09;100689.38;5054706;28;19913;-94
2023/01/07 08:35:00;;;;;;;;;;;;;;;7.96;55.97;100691.03;5053273;28;19908;-93
2023/01/07 08:37:28;;;;;;;;;;;;;;;8.23;56.86;100692.19;5054044;28;20405;-94
2023/01/07 08:39:53;;;;;;;;;;;;;;;8.44;56.03;100680.19;5054443;28;19913;-93
2023/01/07 08:42:18;;;;;;;;;;;;;;;8.09;54.71;100685.91;5052548;28;19912;-93
2023/01/07 08:44:44;;;;;;;;;;;;;;;8.06;55.61;100677.16;5054450;28;19913;-94
2023/01/07 08:47:09;;;;;;;;;;;;;;;8.21;55.31;100680.78;5054586;28;19917;-93
2023/01/07 08:49:34;;;;;;;;;;;;;;;8.15;54.33;100676.34;5052518;28;19944;-93
2023/01/07 08:52:00;;;;;;;;;;;;;;;8.37;54.00;100672.22;5069754;28;19919;-93
2023/01/07 08:54:25;;;;;;;;;;;;;;;8.33;53.38;100666.91;5053071;28;19913;-94
2023/01/07 08:56:50;;;;;;;;;;;;;;;7.94;54.44;100674.38;5053856;28;19920;-94
2023/01/07 08:59:15;;;;;;;;;;;;;;;8.41;54.92;100671.34;5052889;28;19912;-94
2023/01/07 09:01:41;;;;;;;;;;;;;;;8.63;53.59;100658.41;5052312;28;20409;-94
2023/01/07 09:04:06;;;;;;;;;;;;;;;8.51;53.09;100660.94;5052155;28;19920;-93
2023/01/07 09:06:31;;;;;;;;;;;;;;;8.47;54.62;100648.66;5053894;28;19945;-94
2023/01/07 09:08:56;;;;;;;;;;;;;;;8.77;54.23;100648.91;5053134;28;19913;-93
2023/01/07 09:11:22;;;;;;;;;;;;;;;8.73;52.92;100648.88;5053878;28;19913;-93
2023/01/07 09:13:47;;;;;;;;;;;;;;;8.71;53.29;100640.97;5054812;28;20379;-92
2023/01/07 09:16:12;;;;;;;;;;;;;;;8.99;52.84;100641.16;5053928;28;19970;-93
2023/01/07 09:18:38;;;;;;;;;;;;;;;9.14;52.91;100641.28;5053143;28;19995;-92
2023/01/07 09:21:03;;;;;;;;;;;;;;;9.08;51.35;100633.34;5051667;28;20395;-91
2023/01/07 09:23:28;;;;;;;;;;;;;;;9.20;52.63;100634.25;5053659;28;19912;-93
2023/01/07 09:25:54;;;;;;;;;;;;;;;9.44;51.88;100629.13;5051972;28;19912;-92
2023/01/07 09:28:20;;;;;;;;;;;;;;;9.53;51.25;100619.50;5051560;28;19913;-92
2023/01/07 09:30:46;;;;;;;;;;;;;;;9.46;51.54;100611.56;5055944;28;19908;-96
2023/01/07 09:33:12;;;;;;;;;;;;;;;9.67;50.05;100607.28;5052022;28;19916;-96
2023/01/07 09:35:37;;;;;;;;;;;;;;;9.67;51.57;100608.16;5052907;28;19912;-95
2023/01/07 09:38:02;;;;;;;;;;;;;;;9.74;50.71;100611.66;5053513;28;20371;-96
2023/01/07 09:40:45;;;;;;;;;;;;;;;9.77;49.72;100598.50;5055372;28;19987;-96
2023/01/07 09:43:29;;;;;;;;;;;;;;;10.11;50.72;100588.03;5038997;28;19917;-92
2023/01/07 09:45:56;;;;;;;;;;;;;;;10.03;50.27;100584.50;5054600;28;19912;-96
2023/01/07 09:48:28;;;;;;;;;;;;;;;10.23;48.62;100579.25;5053139;28;19917;-92
2023/01/07 09:51:00;;;;;;;;;;;;;;;10.38;48.26;100573.16;5054247;28;19962;-91
2023/01/07 09:53:36;;;;;;;;;;;;;;;10.30;47.94;100574.84;5054422;28;20419;-96
2023/01/07 09:56:03;;;;;;;;;;;;;;;10.21;48.46;100573.97;5052455;28;19950;-95
2023/01/07 09:58:28;;;;;;;;;;;;;;;10.18;48.01;100557.28;5062799;28;19912;-95
2023/01/07 10:00:58;;;;;;;;;;;;;;;10.48;48.07;100561.69;5061549;28;19963;-96
2023/01/07 10:03:43;;;;;;;;;;;;;;;10.87;47.08;100557.22;5055541;28;19913;-94
2023/01/07 10:06:30;;;;;;;;;;;;;;;10.91;47.32;100550.19;5050708;28;19917;-95
2023/01/07 10:09:01;;;;;;;;;;;;;;;11.02;46.88;100537.84;5075115;28;19920;-95
2023/01/07 10:11:45;;;;;;;;;;;;;;;11.39;45.40;100540.31;5054138;28;19913;-96
2023/01/07 10:14:29;;;;;;;;;;;;;;;11.38;45.58;100533.28;5067348;28;19977;-96
2023/01/07 10:17:11;;;;;;;;;;;;;;;11.55;45.78;100530.53;5057607;28;19912;-96
2023/01/07 10:19:59;;;;;;;;;;;;;;;11.54;45.11;100531.44;5103123;22;19925;-96
2023/01/07 10:22:29;;;;;;;;;;;;;;;11.46;45.26;100520.03;5011898;28;20438;-94
2023/01/07 10:25:11;;;;;;;;;;;;;;;11.34;45.88;100518.34;5013032;28;19909;-94
2023/01/07 10:27:41;;;;;;;;;;;;;;;11.68;44.67;100512.88;5014655;28;20326;-96
2023/01/07 10:30:12;;;;;;;;;;;;;;;11.80;44.70;100504.84;5011937;28;19914;-93
2023/01/07 10:32:37;;;;;;;;;;;;;;;12.01;44.60;100502.97;5020967;28;19921;-96
2023/01/07 10:35:03;;;;;;;;;;;;;;;11.77;45.38;100493.41;5017489;28;19909;-96
2023/01/07 10:37:38;;;;;;;;;;;;;;;11.94;45.47;100494.22;5016001;28;19939;-96
2023/01/07 10:40:22;;;;;;;;;;;;;;;12.03;44.47;100495.88;5022183;28;19913;-95
2023/01/07 10:42:48;;;;;;;;;;;;;;;11.99;45.48;100480.94;5017174;28;19909;-92
2023/01/07 10:45:22;;;;;;;;;;;;;;;11.71;46.01;100477.59;5015477;28;19921;-94
2023/01/07 10:47:50;;;;;;;;;;;;;;;11.98;46.52;100466.84;5024752;28;19976;-96
2023/01/07 10:50:34;;;;;;;;;;;;;;;12.17;46.42;100471.97;5019218;28;19906;-96
2023/01/07 10:53:02;;;;;;;;;;;;;;;12.15;44.98;100463.16;5016565;28;19961;-94
2023/01/07 10:55:47;;;;;;;;;;;;;;;12.18;46.42;100464.00;5015609;28;19920;-96
2023/01/07 10:58:12;;;;;;;;;;;;;;;12.27;46.03;100449.81;5015320;28;19914;-96
2023/01/07 11:00:54;;;;;;;;;;;;;;;12.20;46.23;100450.78;5022573;28;19901;-96
2023/01/07 11:03:21;;;;;;;;;;;;;;;12.47;44.60;100446.97;5016578;28;19949;-96
2023/01/07 11:05:51;;;;;;;;;;;;;;;12.31;44.87;100442.72;5016285;28;19917;-96
2023/01/07 11:08:39;;;;;;;;;;;;;;;12.27;45.28;100433.09;5016091;28;19920;-94
2023/01/07 11:11:07;;;;;;;;;;;;;;;12.19;46.17;100441.09;5017721;28;19957;-96
2023/01/07 11:14:00;;;;;;;;;;;;;;;12.64;45.74;100430.91;5028084;28;19941;-96
2023/01/07 11:19:53;;;;;;;;;;;;;;;13.06;43.77;100417.16;5187970;22;19921;-96
2023/01/07 11:22:27;;;;;;;;;;;;;;;12.75;44.96;100414.03;5066851;28;19909;-96
2023/01/07 11:24:54;;;;;;;;;;;;;;;13.04;44.99;100403.06;5081759;28;19927;-96
2023/01/07 11:27:22;;;;;;;;;;;;;;;13.05;43.45;100402.13;5099862;22;19921;-96
2023/01/07 11:30:03;;;;;;;;;;;;;;;13.15;44.05;100401.13;5007220;28;19921;-96
2023/01/07 11:32:31;;;;;;;;;;;;;;;13.05;44.02;100392.44;5027774;28;19925;-95
2023/01/07 11:35:01;;;;;;;;;;;;;;;13.00;43.97;100394.25;5019694;28;19913;-96
2023/01/07 11:37:29;;;;;;;;;;;;;;;13.28;44.16;100388.56;5018029;28;20360;-96
2023/01/07 11:39:59;;;;;;;;;;;;;;;13.04;44.05;100380.09;5016987;28;20352;-95
2023/01/07 11:42:39;;;;;;;;;;;;;;;13.11;44.34;100380.88;5017155;28;19910;-96
2023/01/07 11:45:16;;;;;;;;;;;;;;;13.07;43.38;100382.69;5019414;28;19913;-96
2023/01/07 11:48:05;;;;;;;;;;;;;;;13.26;44.19;100374.47;5021370;28;19909;-96
2023/01/07 11:50:50;;;;;;;;;;;;;;;13.49;43.01;100376.78;5019983;28;19991;-96
2023/01/07 11:53:16;;;;;;;;;;;;;;;13.53;42.27;100373.22;5017078;28;19942;-94
2023/01/07 11:56:19;;;;;;;;;;;;;;;13.41;42.59;100368.09;5024332;28;19901;-96
2023/01/07 11:59:13;;;;;;;;;;;;;;;13.34;43.48;100363.78;4973220;28;20018;-96
2023/01/07 12:01:51;;;;;;;;;;;;;;;13.31;43.04;100369.09;5013239;28;19917;-92
2023/01/07 12:04:24;;;;;;;;;;;;;;;13.42;43.21;100360.13;5020351;28;19953;-94
2023/01/07 12:06:51;;;;;;;;;;;;;;;13.70;42.63;100356.13;5016593;28;19964;-93
2023/01/07 12:09:36;;;;;;;;;;;;;;;13.69;42.53;100352.59;5017847;28;19920;-95
2023/01/07 12:12:33;;;;;;;;;;;;;;;13.57;42.72;100350.16;5018413;28;19913;-95
2023/01/07 12:15:14;;;;;;;;;;;;;;;13.59;42.87;100343.03;5014666;28;19914;-89
2023/01/07 12:17:42;;;;;;;;;;;;;;;13.71;42.98;100345.50;5014507;28;20020;-91
2023/01/07 12:20:31;;;;;;;;;;;;;;;13.78;43.23;100339.19;5016692;28;19913;-91
2023/01/07 12:23:16;;;;;;;;;;;;;;;14.00;41.73;100337.94;5019207;28;19964;-96
2023/01/07 12:25:52;;;;;;;;;;;;;;;14.03;41.69;100332.56;5016617;28;19925;-90
2023/01/07 12:28:25;;;;;;;;;;;;;;;13.90;41.31;100332.78;5016332;28;19914;-93
2023/01/07 12:31:09;;;;;;;;;;;;;;;13.94;41.84;100338.91;5016909;28;19917;-93
2023/01/07 12:34:04;;;;;;;;;;;;;;;13.99;41.48;100326.41;5016556;28;19964;-94
2023/01/07 12:36:49;;;;;;;;;;;;;;;14.18;40.86;100323.41;5003024;28;19917;-96
2023/01/07 12:39:34;;;;;;;;;;;;;;;14.05;41.55;100328.09;5017996;28;19921;-95
2023/01/07 12:42:07;;;;;;;;;;;;;;;13.99;40.80;100321.13;5018478;28;20378;-95
2023/01/07 12:44:34;;;;;;;;;;;;;;;14.25;40.13;100320.59;5017216;28;20012;-94
2023/01/07 12:47:12;;;;;;;;;;;;;;;14.03;41.15;100317.50;5015542;28;19948;-92
2023/01/07 12:53:11;;;;;;;;;;;;;;;14.10;41.19;100313.84;5015569;28;19941;-90
2023/01/07 12:55:40;;;;;;;;;;;;;;;14.09;41.24;100312.09;5015282;28;20297;-95
2023/01/07 12:58:24;;;;;;;;;;;;;;;13.95;42.72;100315.00;5016065;28;19914;-96
2023/01/07 13:00:57;;;;;;;;;;;;;;;13.99;43.26;100307.84;5016733;28;19913;-93
2023/01/07 13:03:31;;;;;;;;;;;;;;;14.00;43.53;100312.25;4997957;28;19917;-90